KEMV

Emporia-Greensville Regional Airport

Emporia, Virginia, USA
METAR KEMV 190655Z AUTO 21003KT 10SM CLR M01/M08 A3019 RMK AO2
Observed Flight Rules
Jan-19 @ 06:55 UTC (18 minutes ago) Visual Flight Rules
Wind Visibility Clouds
210° at 3 knots 10 miles
  • Clear skies
Temperatures Readings
Current -1°C / 30°F
Dewpoint -8°C / 18°F
Humidity 59%
Altimeter 30.19" Hg
Pressure 1022 hPa
Elevation 39
METAR KEMV 190655Z AUTO 21003KT 10SM CLR M01/M08 A3019 RMK AO2
Observed Flight Rules
Jan-19 @ 06:55 UTC
(18 minutes ago)
VFR
Wind Visibility
210° at 3 knots 10 miles
Clouds
  • Clear skies
Temperature Dewpoint
-1°C / 30°F -8°C / 18°F
Humidity Altimeter Pressure
59% 30.19" Hg 1022 hPa